createdAt,value
2023-05-14T00:01:03.003Z,5.80
2023-05-14T00:04:12.731Z,6.70
2023-05-14T00:07:21.327Z,5.83
2023-05-14T00:10:27.981Z,6.97
2023-05-14T00:13:40.458Z,5.90
2023-05-14T00:16:53.130Z,6.53
2023-05-14T00:20:07.700Z,6.22
2023-05-14T00:23:22.452Z,6.43
2023-05-14T00:26:29.262Z,6.40
2023-05-14T00:29:33.827Z,6.72
2023-05-14T00:32:47.562Z,6.63
2023-05-14T00:35:52.548Z,5.70
2023-05-14T00:38:56.644Z,6.40
2023-05-14T00:42:01.168Z,6.30
2023-05-14T00:45:04.114Z,6.15
2023-05-14T00:48:07.416Z,6.22
2023-05-14T00:51:10.143Z,5.43
2023-05-14T00:54:13.858Z,5.93
2023-05-14T00:57:19.596Z,6.10
2023-05-14T01:00:28.678Z,5.50
2023-05-14T01:03:37.887Z,5.72
2023-05-14T01:06:52.837Z,5.47
2023-05-14T01:10:47.076Z,5.90
2023-05-14T01:13:57.216Z,6.20
2023-05-14T01:17:04.507Z,5.82
2023-05-14T01:20:11.047Z,5.90
2023-05-14T01:23:22.811Z,6.10
2023-05-14T01:26:49.319Z,5.50
2023-05-14T01:33:43.465Z,5.72
2023-05-14T01:36:53.091Z,6.07
2023-05-14T01:40:01.078Z,5.88
2023-05-14T01:43:13.294Z,5.87
2023-05-14T01:46:49.188Z,6.40
2023-05-14T01:49:58.895Z,6.45
2023-05-14T01:53:04.653Z,6.10
2023-05-14T01:56:08.442Z,6.00
2023-05-14T01:59:12.722Z,6.17
2023-05-14T02:02:26.462Z,6.03
2023-05-14T02:05:32.077Z,6.05
2023-05-14T02:08:45.080Z,5.65
2023-05-14T02:11:57.582Z,6.20
2023-05-14T02:15:09.756Z,6.27
2023-05-14T02:18:32.500Z,5.90
2023-05-14T02:21:51.417Z,5.72
2023-05-14T02:25:01.963Z,5.70
2023-05-14T02:28:08.422Z,5.97
2023-05-14T02:31:14.835Z,5.73
2023-05-14T02:34:18.558Z,5.53
2023-05-14T02:37:28.181Z,5.85
2023-05-14T02:40:49.471Z,5.28
2023-05-14T02:44:12.915Z,6.28
2023-05-14T02:54:27.849Z,5.20
2023-05-14T02:57:46.853Z,4.75
2023-05-14T03:01:15.341Z,5.28
2023-05-14T03:04:31.829Z,5.17
2023-05-14T03:11:23.104Z,5.25
2023-05-14T03:19:46.992Z,4.60
2023-05-14T03:23:20.557Z,4.70
2023-05-14T03:30:30.234Z,4.72
2023-05-14T03:34:13.936Z,4.78
2023-05-14T03:38:06.063Z,5.25
2023-05-14T03:41:24.880Z,5.43
2023-05-14T03:52:33.716Z,5.20
2023-05-14T04:01:12.060Z,4.63
2023-05-14T04:04:32.529Z,4.27
2023-05-14T04:08:27.361Z,4.40
2023-05-14T04:12:12.294Z,4.80
2023-05-14T04:16:13.077Z,4.35
2023-05-14T04:24:03.236Z,4.70
2023-05-14T04:27:27.723Z,4.03
2023-05-14T04:31:06.085Z,4.50
2023-05-14T04:38:43.785Z,4.63
2023-05-14T04:42:08.036Z,4.53
2023-05-14T04:50:35.250Z,5.05
2023-05-14T04:54:11.460Z,4.20
2023-05-14T04:58:14.819Z,3.90
2023-05-14T05:19:59.727Z,4.00
2023-05-14T05:28:31.650Z,5.00
2023-05-14T05:33:16.230Z,5.60
2023-05-14T06:10:47.694Z,4.80
2023-05-14T06:22:59.008Z,5.60
2023-05-14T06:26:15.118Z,5.50
2023-05-14T06:29:26.751Z,4.87
2023-05-14T06:32:54.686Z,5.63
2023-05-14T06:36:10.139Z,5.30
2023-05-14T06:39:16.591Z,5.97
2023-05-14T06:42:28.542Z,5.70
2023-05-14T06:45:49.199Z,5.60
2023-05-14T06:48:59.780Z,5.80
2023-05-14T06:52:04.174Z,5.95
2023-05-14T06:55:11.367Z,5.93
2023-05-14T06:58:22.300Z,5.83
2023-05-14T07:01:36.308Z,5.87
2023-05-14T07:04:53.137Z,4.47
2023-05-14T07:07:59.264Z,5.95
2023-05-14T07:11:07.457Z,5.72
2023-05-14T07:14:11.364Z,5.40
2023-05-14T07:17:23.116Z,5.67
2023-05-14T07:20:27.555Z,5.82
2023-05-14T07:23:36.740Z,5.50
2023-05-14T07:26:51.221Z,6.10
2023-05-14T07:30:14.918Z,4.67
2023-05-14T07:33:36.564Z,5.47
2023-05-14T07:36:49.110Z,4.90
2023-05-14T07:39:58.730Z,5.43
2023-05-14T07:43:24.271Z,4.97
2023-05-14T07:51:38.594Z,5.07
2023-05-14T08:05:54.363Z,5.70
2023-05-14T08:09:10.269Z,5.93
2023-05-14T08:12:32.241Z,5.72
2023-05-14T08:16:13.080Z,6.28
2023-05-14T08:23:00.058Z,6.10
2023-05-14T08:26:14.496Z,6.23
2023-05-14T08:29:22.686Z,6.13
2023-05-14T08:32:31.934Z,6.95
2023-05-14T08:35:45.755Z,6.03
2023-05-14T08:39:09.702Z,6.47
2023-05-14T08:42:33.108Z,7.07
2023-05-14T08:45:49.727Z,6.75
2023-05-14T08:49:09.040Z,6.18
2023-05-14T08:52:30.838Z,6.55
2023-05-14T08:55:59.382Z,6.10
2023-05-14T08:59:08.747Z,6.30
2023-05-14T09:02:34.823Z,6.97
2023-05-14T09:05:55.001Z,6.50
2023-05-14T09:09:01.261Z,7.07
2023-05-14T09:12:09.027Z,6.47
2023-05-14T09:15:22.566Z,6.47
2023-05-14T09:18:45.767Z,6.60
2023-05-14T09:22:03.449Z,6.95
2023-05-14T09:25:25.691Z,6.68
2023-05-14T09:28:56.293Z,5.87
2023-05-14T09:32:16.872Z,6.20
2023-05-14T09:35:28.138Z,7.10
2023-05-14T09:38:51.424Z,6.72
2023-05-14T09:42:01.100Z,6.82
2023-05-14T09:45:11.531Z,6.60
2023-05-14T09:48:20.380Z,6.07
2023-05-14T09:51:24.324Z,5.93
2023-05-14T09:54:35.700Z,6.63
2023-05-14T09:57:39.796Z,6.43
2023-05-14T10:00:51.592Z,7.77
2023-05-14T10:04:00.129Z,7.57
2023-05-14T10:07:04.570Z,6.88
2023-05-14T10:10:12.346Z,6.97
2023-05-14T10:13:20.960Z,7.18
2023-05-14T10:16:34.885Z,6.83
2023-05-14T10:19:41.043Z,6.93
2023-05-14T10:22:50.433Z,7.53
2023-05-14T10:25:57.198Z,6.85
2023-05-14T10:29:01.604Z,7.05
2023-05-14T10:32:07.534Z,7.97
2023-05-14T10:35:23.812Z,7.67
2023-05-14T10:38:28.633Z,6.05
2023-05-14T10:41:46.641Z,6.38
2023-05-14T10:45:07.763Z,6.85
2023-05-14T10:48:12.489Z,7.40
2023-05-14T10:51:24.031Z,7.37
2023-05-14T10:54:36.112Z,7.03
2023-05-14T10:57:47.863Z,7.15
2023-05-14T11:01:09.270Z,7.25
2023-05-14T11:04:28.812Z,6.80
2023-05-14T11:07:49.795Z,7.17
2023-05-14T11:10:57.795Z,7.10
2023-05-14T11:14:08.464Z,7.38
2023-05-14T11:17:45.968Z,6.88
2023-05-14T11:21:28.970Z,7.50
2023-05-14T11:25:24.483Z,7.77
2023-05-14T11:32:22.688Z,7.93
2023-05-14T11:35:27.411Z,7.60
2023-05-14T11:38:50.045Z,7.87
2023-05-14T11:42:06.523Z,7.73
2023-05-14T11:45:34.758Z,8.40
2023-05-14T11:52:15.833Z,7.85
2023-05-14T11:55:23.807Z,7.87
2023-05-14T12:02:03.656Z,7.60
2023-05-14T12:05:11.736Z,7.80
2023-05-14T12:08:43.200Z,8.07
2023-05-14T12:12:02.457Z,7.70
2023-05-14T12:15:34.418Z,8.33
2023-05-14T12:18:55.917Z,7.43
2023-05-14T12:22:13.312Z,7.90
2023-05-14T12:25:24.883Z,6.18
2023-05-14T12:28:38.587Z,7.27
2023-05-14T12:32:03.570Z,6.50
2023-05-14T12:35:17.283Z,6.85
2023-05-14T12:38:29.983Z,8.10
2023-05-14T12:41:55.668Z,8.30
2023-05-14T12:45:07.477Z,8.47
2023-05-14T12:48:21.465Z,7.60
2023-05-14T12:51:31.605Z,8.57
2023-05-14T12:54:44.943Z,8.32
2023-05-14T12:57:58.735Z,8.60
2023-05-14T13:01:11.180Z,9.50
2023-05-14T13:08:02.885Z,8.63
2023-05-14T13:11:09.771Z,8.00
2023-05-14T13:14:43.745Z,9.00
2023-05-14T13:18:25.635Z,8.93
2023-05-14T13:21:44.532Z,8.43
2023-05-14T13:28:34.899Z,8.80
2023-05-14T13:31:49.543Z,9.05
2023-05-14T13:35:12.067Z,10.17
2023-05-14T13:42:12.778Z,8.98
2023-05-14T13:45:25.904Z,9.45
2023-05-14T13:48:45.192Z,10.00
2023-05-14T13:51:56.673Z,9.27
2023-05-14T13:55:26.537Z,10.03
2023-05-14T13:58:33.612Z,10.02
2023-05-14T14:01:55.572Z,9.90
2023-05-14T14:05:05.363Z,10.05
2023-05-14T14:08:23.457Z,9.87
2023-05-14T14:11:35.456Z,10.83
2023-05-14T14:14:54.584Z,10.35
2023-05-14T14:18:29.232Z,9.35
2023-05-14T14:21:46.300Z,12.82
2023-05-14T14:25:13.183Z,11.43
2023-05-14T14:28:26.086Z,9.43
2023-05-14T14:31:44.851Z,10.70
2023-05-14T14:34:50.678Z,8.93
2023-05-14T14:38:01.308Z,8.27
2023-05-14T14:41:31.511Z,7.87
2023-05-14T14:45:01.392Z,7.37
2023-05-14T14:48:36.797Z,7.70
2023-05-14T14:55:32.287Z,5.97
2023-05-14T14:59:01.559Z,5.40
2023-05-14T15:02:48.241Z,5.07
2023-05-14T15:06:31.118Z,4.72
2023-05-14T15:09:51.484Z,5.60
2023-05-14T15:13:15.663Z,5.03
2023-05-14T15:16:35.471Z,5.93
2023-05-14T15:19:45.925Z,6.03
2023-05-14T15:23:16.237Z,5.32
2023-05-14T15:26:29.980Z,5.90
2023-05-14T15:30:05.135Z,6.03
2023-05-14T15:33:24.015Z,5.90
2023-05-14T15:36:42.850Z,6.10
2023-05-14T15:39:52.249Z,6.35
2023-05-14T15:43:05.759Z,5.80
2023-05-14T15:46:18.586Z,5.95
2023-05-14T15:49:27.963Z,6.13
2023-05-14T15:52:52.953Z,6.13
2023-05-14T15:56:23.638Z,5.90
2023-05-14T15:59:31.852Z,6.38
2023-05-14T16:02:35.454Z,6.53
2023-05-14T16:05:48.696Z,6.27
2023-05-14T16:08:58.748Z,6.77
2023-05-14T16:12:04.519Z,6.18
2023-05-14T16:15:09.541Z,6.13
2023-05-14T16:18:16.810Z,6.22
2023-05-14T16:21:25.962Z,5.90
2023-05-14T16:24:28.886Z,5.60
2023-05-14T16:27:33.771Z,4.95
2023-05-14T16:30:37.161Z,5.18
2023-05-14T16:33:52.614Z,5.10
2023-05-14T16:37:00.196Z,4.80
2023-05-14T16:40:03.909Z,4.83
2023-05-14T16:43:13.069Z,4.88
2023-05-14T16:46:19.824Z,4.82
2023-05-14T16:49:25.664Z,4.78
2023-05-14T16:52:51.990Z,4.50
2023-05-14T16:56:20.133Z,4.20
2023-05-14T16:59:46.459Z,4.82
2023-05-14T17:03:03.729Z,4.68
2023-05-14T17:06:15.890Z,5.10
2023-05-14T17:09:24.569Z,4.80
2023-05-14T17:12:37.294Z,5.17
2023-05-14T17:15:50.030Z,5.47
2023-05-14T17:18:56.569Z,5.50
2023-05-14T17:22:01.039Z,5.32
2023-05-14T17:25:06.487Z,5.30
2023-05-14T17:28:26.852Z,5.63
2023-05-14T17:31:33.945Z,5.05
2023-05-14T17:34:50.738Z,5.18
2023-05-14T17:38:01.081Z,5.80
2023-05-14T17:41:23.350Z,5.67
2023-05-14T17:44:33.076Z,6.03
2023-05-14T17:47:40.921Z,6.50
2023-05-14T17:50:48.138Z,5.55
2023-05-14T17:54:02.989Z,5.90
2023-05-14T17:57:07.797Z,6.37
2023-05-14T18:00:14.048Z,6.50
2023-05-14T18:03:20.625Z,6.97
2023-05-14T18:06:30.321Z,6.95
2023-05-14T18:09:39.235Z,6.88
2023-05-14T18:12:50.504Z,6.20
2023-05-14T18:16:04.013Z,6.60
2023-05-14T18:19:21.424Z,6.32
2023-05-14T18:22:35.031Z,6.85
2023-05-14T18:26:34.218Z,7.00
2023-05-14T18:33:21.504Z,7.67
2023-05-14T18:39:54.856Z,7.57
2023-05-14T18:46:46.156Z,6.83
2023-05-14T18:49:59.564Z,7.70
2023-05-14T18:53:23.818Z,7.25
2023-05-14T18:56:55.006Z,7.07
2023-05-14T19:04:26.455Z,7.40
2023-05-14T19:08:13.287Z,7.17
2023-05-14T19:20:29.487Z,7.80
2023-05-14T19:27:48.999Z,7.90
2023-05-14T19:31:14.397Z,7.97
2023-05-14T19:34:45.423Z,7.75
2023-05-14T19:38:21.825Z,7.50
2023-05-14T19:46:21.704Z,7.60
2023-05-14T19:50:27.186Z,7.68
2023-05-14T19:57:45.253Z,7.53
2023-05-14T20:01:56.084Z,8.00
2023-05-14T20:05:57.581Z,6.50
2023-05-14T20:09:33.213Z,6.78
2023-05-14T20:12:59.627Z,6.72
2023-05-14T20:16:20.827Z,6.57
2023-05-14T20:19:49.654Z,7.40
2023-05-14T20:23:25.495Z,6.80
2023-05-14T20:31:11.597Z,7.68
2023-05-14T20:35:11.679Z,8.10
2023-05-14T20:38:30.063Z,8.13
2023-05-14T20:41:52.027Z,7.43
2023-05-14T20:45:06.064Z,7.68
2023-05-14T20:51:51.753Z,7.28
2023-05-14T20:55:00.852Z,7.33
2023-05-14T20:58:12.124Z,8.20
2023-05-14T21:01:19.227Z,7.80
2023-05-14T21:04:30.308Z,7.70
2023-05-14T21:07:37.639Z,7.88
2023-05-14T21:10:48.175Z,7.93
2023-05-14T21:13:54.568Z,7.00
2023-05-14T21:16:57.806Z,7.30
2023-05-14T21:20:04.064Z,7.63
2023-05-14T21:23:13.597Z,7.38
2023-05-14T21:26:29.622Z,8.37
2023-05-14T21:29:39.472Z,7.53
2023-05-14T21:32:42.836Z,6.43
2023-05-14T21:35:54.238Z,8.80
2023-05-14T21:38:58.470Z,6.38
2023-05-14T21:42:17.513Z,6.37
2023-05-14T21:45:30.841Z,7.00
2023-05-14T21:48:58.145Z,6.35
2023-05-14T21:56:01.730Z,6.50
2023-05-14T21:59:39.596Z,6.60
2023-05-14T22:02:55.437Z,6.93
2023-05-14T22:06:15.220Z,6.53
2023-05-14T22:09:19.122Z,6.25
2023-05-14T22:12:34.973Z,6.05
2023-05-14T22:15:58.134Z,6.77
2023-05-14T22:19:33.527Z,5.93
2023-05-14T22:22:48.673Z,6.18
2023-05-14T22:26:00.246Z,6.70
2023-05-14T22:29:16.889Z,6.63
2023-05-14T22:32:25.974Z,7.27
2023-05-14T22:35:47.330Z,7.57
2023-05-14T22:39:01.184Z,6.50
2023-05-14T22:42:10.772Z,6.82
2023-05-14T22:45:15.385Z,6.93
2023-05-14T22:48:34.388Z,6.27
2023-05-14T22:52:01.956Z,7.77
2023-05-14T22:55:20.090Z,6.72
2023-05-14T22:58:52.742Z,7.30
2023-05-14T23:02:11.418Z,7.20
2023-05-14T23:05:27.066Z,6.73
2023-05-14T23:08:49.332Z,7.33
2023-05-14T23:12:18.187Z,7.65
2023-05-14T23:15:38.826Z,7.60
2023-05-14T23:19:07.513Z,7.68
2023-05-14T23:22:35.263Z,7.50
2023-05-14T23:26:10.267Z,7.00
2023-05-14T23:29:43.540Z,7.95
2023-05-14T23:33:04.598Z,7.25
2023-05-14T23:36:48.522Z,7.70
2023-05-14T23:44:11.696Z,7.93
2023-05-14T23:47:45.447Z,7.35
2023-05-14T23:51:42.056Z,8.40
2023-05-14T23:55:02.557Z,9.05
2023-05-14T23:58:41.827Z,9.00
